createdAt,value
2018-05-04T00:01:44.013Z,99234
2018-05-04T00:04:14.192Z,99232
2018-05-04T00:06:44.332Z,99226
2018-05-04T00:09:14.261Z,99221
2018-05-04T00:11:44.228Z,99222
2018-05-04T00:14:14.073Z,99227
2018-05-04T00:16:44.115Z,99230
2018-05-04T00:19:14.247Z,99232
2018-05-04T00:21:44.678Z,99233
2018-05-04T00:24:17.174Z,99238
2018-05-04T00:26:47.734Z,99241
2018-05-04T00:29:17.919Z,99233
2018-05-04T00:31:48.135Z,99234
2018-05-04T00:34:18.159Z,99239
2018-05-04T00:36:48.353Z,99241
2018-05-04T00:39:18.562Z,99246
2018-05-04T00:41:48.720Z,99250
2018-05-04T00:44:19.345Z,99252
2018-05-04T00:46:49.388Z,99252
2018-05-04T00:49:19.854Z,99254
2018-05-04T00:51:50.250Z,99249
2018-05-04T00:54:24.111Z,99259
2018-05-04T00:56:54.345Z,99254
2018-05-04T00:59:25.485Z,99256
2018-05-04T01:01:55.488Z,99262
2018-05-04T01:04:25.293Z,99265
2018-05-04T01:06:55.391Z,99270
2018-05-04T01:09:25.948Z,99273
2018-05-04T01:11:56.179Z,99280
2018-05-04T01:14:26.471Z,99275
2018-05-04T01:16:56.553Z,99279
2018-05-04T01:19:26.844Z,99284
2018-05-04T01:21:57.035Z,99283
2018-05-04T01:24:27.137Z,99284
2018-05-04T01:26:57.216Z,99285
2018-05-04T01:29:27.447Z,99285
2018-05-04T01:31:57.472Z,99288
2018-05-04T01:34:27.205Z,99287
2018-05-04T01:36:57.765Z,99287
2018-05-04T01:39:27.918Z,99289
2018-05-04T01:41:58.239Z,99298
2018-05-04T01:44:28.543Z,99292
2018-05-04T01:46:58.860Z,99288
2018-05-04T01:49:29.608Z,99288
2018-05-04T01:51:59.472Z,99293
2018-05-04T01:54:29.295Z,99294
2018-05-04T01:56:59.754Z,99300
2018-05-04T01:59:30.037Z,99307
2018-05-04T02:02:00.150Z,99301
2018-05-04T02:04:30.121Z,99298
2018-05-04T02:07:00.376Z,99295
2018-05-04T02:09:30.777Z,99288
2018-05-04T02:12:00.826Z,99287
2018-05-04T02:14:30.762Z,99281
2018-05-04T02:17:00.943Z,99290
2018-05-04T02:19:30.748Z,99286
2018-05-04T02:22:00.830Z,99285
2018-05-04T02:24:31.245Z,99279
2018-05-04T02:27:01.602Z,99279
2018-05-04T02:29:31.699Z,99288
2018-05-04T02:32:01.935Z,99291
2018-05-04T02:34:31.753Z,99277
2018-05-04T02:37:02.043Z,99270
2018-05-04T02:39:32.074Z,99277
2018-05-04T02:42:02.438Z,99291
2018-05-04T02:44:32.648Z,99300
2018-05-04T02:47:02.823Z,99302
2018-05-04T02:49:32.625Z,99313
2018-05-04T02:52:02.923Z,99316
2018-05-04T02:54:32.687Z,99308
2018-05-04T02:57:02.918Z,99305
2018-05-04T02:59:32.681Z,99305
2018-05-04T03:02:02.731Z,99304
2018-05-04T03:04:32.527Z,99301
2018-05-04T03:07:02.724Z,99313
2018-05-04T03:09:33.025Z,99322
2018-05-04T03:12:03.290Z,99322
2018-05-04T03:14:34.509Z,99336
2018-05-04T03:17:04.380Z,99337
2018-05-04T03:19:34.329Z,99339
2018-05-04T03:22:05.119Z,99337
2018-05-04T03:24:35.319Z,99332
2018-05-04T03:27:05.495Z,99334
2018-05-04T03:29:35.638Z,99335
2018-05-04T03:32:06.135Z,99334
2018-05-04T03:34:36.133Z,99325
2018-05-04T03:37:06.032Z,99323
2018-05-04T03:39:36.038Z,99318
2018-05-04T03:42:06.382Z,99321
2018-05-04T03:44:36.736Z,99329
2018-05-04T03:47:07.411Z,99345
2018-05-04T03:49:37.422Z,99348
2018-05-04T03:52:07.791Z,99348
2018-05-04T03:54:38.063Z,99345
2018-05-04T03:57:19.754Z,99342
2018-05-04T04:00:01.255Z,99344
2018-05-04T04:02:42.586Z,99346
2018-05-04T04:05:12.375Z,99346
2018-05-04T04:07:42.225Z,99349
2018-05-04T04:10:12.040Z,99350
2018-05-04T04:12:42.524Z,99354
2018-05-04T04:15:12.262Z,99358
2018-05-04T04:17:42.029Z,99364
2018-05-04T04:20:11.816Z,99368
2018-05-04T04:22:41.571Z,99367
2018-05-04T04:25:11.387Z,99370
2018-05-04T04:27:41.305Z,99365
2018-05-04T04:30:11.090Z,99365
2018-05-04T04:32:40.929Z,99365
2018-05-04T04:35:10.960Z,99374
2018-05-04T04:37:41.607Z,99378
2018-05-04T04:40:11.606Z,99379
2018-05-04T04:42:41.363Z,99377
2018-05-04T04:45:11.168Z,99372
2018-05-04T04:47:41.002Z,99373
2018-05-04T04:50:10.705Z,99372
2018-05-04T04:52:40.625Z,99380
2018-05-04T04:55:10.500Z,99382
2018-05-04T04:57:40.286Z,99383
2018-05-04T05:00:10.053Z,99391
2018-05-04T05:02:39.776Z,99391
2018-05-04T05:05:09.580Z,99388
2018-05-04T05:07:39.378Z,99385
2018-05-04T05:10:09.153Z,99390
2018-05-04T05:12:40.031Z,99394
2018-05-04T05:15:09.796Z,99390
2018-05-04T05:17:39.674Z,99391
2018-05-04T05:20:09.446Z,99385
2018-05-04T05:22:39.198Z,99378
2018-05-04T05:25:09.620Z,99376
2018-05-04T05:27:39.453Z,99372
2018-05-04T05:30:09.232Z,99368
2018-05-04T05:32:39.003Z,99370
2018-05-04T05:35:08.754Z,99370
2018-05-04T05:37:38.551Z,99367
2018-05-04T05:40:08.315Z,99371
2018-05-04T05:42:38.013Z,99377
2018-05-04T05:45:07.830Z,99381
2018-05-04T05:47:37.603Z,99387
2018-05-04T05:50:07.390Z,99382
2018-05-04T05:52:38.999Z,99392
2018-05-04T05:55:08.821Z,99387
2018-05-04T05:57:38.633Z,99385
2018-05-04T06:00:08.417Z,99383
2018-05-04T06:02:38.157Z,99387
2018-05-04T06:05:07.940Z,99386
2018-05-04T06:07:37.708Z,99379
2018-05-04T06:10:07.618Z,99386
2018-05-04T06:12:37.422Z,99383
2018-05-04T06:15:07.285Z,99379
2018-05-04T06:17:37.082Z,99375
2018-05-04T06:20:07.137Z,99369
2018-05-04T06:22:36.870Z,99373
2018-05-04T06:25:07.556Z,99370
2018-05-04T06:27:37.394Z,99370
2018-05-04T06:45:37.266Z,99370
2018-05-04T06:48:07.166Z,99366
2018-05-04T06:50:37.983Z,99367
2018-05-04T06:53:07.793Z,99372
2018-05-04T06:55:38.489Z,99372
2018-05-04T06:58:08.317Z,99368
2018-05-04T07:00:38.185Z,99372
2018-05-04T07:03:07.951Z,99373
2018-05-04T07:05:37.716Z,99378
2018-05-04T07:08:07.878Z,99381
2018-05-04T07:10:37.660Z,99381
2018-05-04T07:13:07.453Z,99372
2018-05-04T07:15:37.246Z,99378
2018-05-04T07:18:07.087Z,99378
2018-05-04T07:20:37.326Z,99380
2018-05-04T07:23:07.119Z,99381
2018-05-04T07:25:36.978Z,99380
2018-05-04T07:28:09.024Z,99371
2018-05-04T07:30:41.221Z,99382
2018-05-04T07:33:20.000Z,99376
2018-05-04T07:38:43.625Z,99378
2018-05-04T07:41:13.403Z,99380
2018-05-04T07:43:43.207Z,99379
2018-05-04T07:46:13.133Z,99372
2018-05-04T07:48:43.927Z,99368
2018-05-04T07:51:13.840Z,99368
2018-05-04T07:53:43.591Z,99363
2018-05-04T07:56:13.499Z,99363
2018-05-04T07:58:43.244Z,99367
2018-05-04T08:01:13.037Z,99366
2018-05-04T08:03:42.895Z,99355
2018-05-04T08:06:12.710Z,99360
2018-05-04T08:08:42.470Z,99366
2018-05-04T08:11:12.382Z,99363
2018-05-04T08:13:42.197Z,99360
2018-05-04T08:16:12.001Z,99355
2018-05-04T08:18:41.738Z,99343
2018-05-04T08:21:11.457Z,99333
2018-05-04T08:23:41.273Z,99340
2018-05-04T08:26:11.044Z,99342
2018-05-04T08:28:40.907Z,99346
2018-05-04T08:31:10.614Z,99337
2018-05-04T08:33:40.430Z,99337
2018-05-04T08:36:11.187Z,99336
2018-05-04T08:38:40.925Z,99337
2018-05-04T08:41:10.700Z,99333
2018-05-04T08:43:40.463Z,99319
2018-05-04T08:46:10.317Z,99318
2018-05-04T08:48:40.142Z,99323
2018-05-04T08:51:10.965Z,99325
2018-05-04T08:53:40.837Z,99325
2018-05-04T08:56:10.630Z,99328
2018-05-04T08:58:40.352Z,99318
2018-05-04T09:04:00.569Z,99305
2018-05-04T09:06:30.395Z,99316
2018-05-04T09:09:00.207Z,99310
2018-05-04T09:11:29.978Z,99308
2018-05-04T09:13:59.832Z,99303
2018-05-04T09:16:29.572Z,99303
2018-05-04T09:19:00.123Z,99303
2018-05-04T09:21:29.882Z,99296
2018-05-04T09:23:59.734Z,99297
2018-05-04T09:26:43.220Z,99295
2018-05-04T09:29:14.004Z,99298
2018-05-04T09:31:43.879Z,99293
2018-05-04T09:34:17.600Z,99287
2018-05-04T09:36:51.316Z,99292
2018-05-04T09:39:26.872Z,99291
2018-05-04T09:41:56.590Z,99289
2018-05-04T09:44:28.065Z,99288
2018-05-04T09:46:58.412Z,99289
2018-05-04T09:49:29.616Z,99282
2018-05-04T09:52:06.203Z,99268
2018-05-04T09:54:36.496Z,99271
2018-05-04T09:57:06.238Z,99277
2018-05-04T09:59:36.169Z,99283
2018-05-04T10:02:06.177Z,99273
2018-05-04T10:04:35.950Z,99273
2018-05-04T10:07:05.817Z,99274
2018-05-04T10:09:35.587Z,99270
2018-05-04T10:12:05.393Z,99261
2018-05-04T10:14:35.238Z,99261
2018-05-04T10:17:05.136Z,99259
2018-05-04T10:19:38.643Z,99262
2018-05-04T10:22:09.386Z,99260
2018-05-04T10:24:43.121Z,99256
2018-05-04T10:27:13.860Z,99258
2018-05-04T10:29:44.843Z,99257
2018-05-04T10:32:16.846Z,99253
2018-05-04T10:34:51.737Z,99250
2018-05-04T10:37:26.600Z,99245
2018-05-04T10:39:57.946Z,99255
2018-05-04T10:42:27.753Z,99249
2018-05-04T10:44:57.672Z,99243
2018-05-04T23:12:05.794Z,99347
2018-05-04T23:14:36.991Z,99342
2018-05-04T23:17:07.308Z,99342
2018-05-04T23:19:37.568Z,99340
2018-05-04T23:22:07.613Z,99340
2018-05-04T23:24:37.477Z,99336
2018-05-04T23:27:07.392Z,99338
2018-05-04T23:29:37.889Z,99337
2018-05-04T23:32:07.648Z,99347
2018-05-04T23:34:37.691Z,99350
2018-05-04T23:37:07.896Z,99355
2018-05-04T23:39:38.257Z,99359
2018-05-04T23:42:08.053Z,99358
2018-05-04T23:44:38.311Z,99357
2018-05-04T23:47:08.576Z,99358
2018-05-04T23:49:38.784Z,99363
2018-05-04T23:52:09.145Z,99351
2018-05-04T23:54:39.854Z,99352
2018-05-04T23:57:09.644Z,99353
2018-05-04T23:59:39.472Z,99348
